Time;durP1;ratioP1;P1;durP2;ratioP2;P2;SDS_P1;SDS_P2;PMS_P1;PMS_P2;Temp;Humidity;BMP_temperature;BMP_pressure;BME280_temperature;BME280_humidity;BME280_pressure;Samples;Min_cycle;Max_cycle;Signal;HPM_P1;HPM_P2
2022/01/26 00:07:48;;;;;;;;;;;2.90;99.90;;;;;;5062116;28;20437;-75
2022/01/26 00:10:14;;;;;;;;;;;2.90;99.90;;;;;;5046311;28;20011;-75
2022/01/26 00:12:41;;;;;;;;;;;2.90;99.90;;;;;;5047121;28;20070;-77
2022/01/26 00:15:08;;;;;;;;;;;2.90;99.90;;;;;;5038262;28;19924;-75
2022/01/26 00:17:35;;;;;;;;;;;2.90;99.90;;;;;;5044707;28;19929;-75
2022/01/26 00:20:10;;;;;;;;;;;2.80;99.90;;;;;;5051472;28;19954;-75
2022/01/26 00:22:54;;;;;;;;;;;2.80;99.90;;;;;;5047385;28;20406;-75
2022/01/26 00:25:33;;;;;;;;;;;2.80;99.90;;;;;;5047532;28;19928;-74
2022/01/26 00:28:19;;;;;;;;;;;2.80;99.90;;;;;;5040214;28;19931;-75
2022/01/26 00:39:03;;;;;;;;;;;2.70;99.90;;;;;;5042548;28;19932;-76
2022/01/26 00:41:35;;;;;;;;;;;2.60;99.90;;;;;;5036158;28;19983;-76
2022/01/26 00:44:06;;;;;;;;;;;2.60;99.90;;;;;;5040325;28;19987;-76
2022/01/26 00:46:34;;;;;;;;;;;2.70;99.90;;;;;;5053115;28;19991;-75
2022/01/26 00:49:00;;;;;;;;;;;2.70;99.90;;;;;;5037122;28;19969;-75
2022/01/26 00:51:27;;;;;;;;;;;2.70;99.90;;;;;;5039351;28;19952;-74
2022/01/26 00:54:01;;;;;;;;;;;2.70;99.90;;;;;;5040359;28;19925;-75
2022/01/26 00:56:30;;;;;;;;;;;2.70;99.90;;;;;;5038458;28;20356;-75
2022/01/26 00:58:56;;;;;;;;;;;2.70;99.90;;;;;;5046281;28;20002;-75
2022/01/26 01:01:23;;;;;;;;;;;2.70;99.90;;;;;;5032717;28;19964;-75
2022/01/26 01:03:49;;;;;;;;;;;2.70;99.90;;;;;;5034577;28;19925;-75
2022/01/26 01:06:21;;;;;;;;;;;2.70;99.90;;;;;;5043781;28;20020;-75
2022/01/26 01:08:48;;;;;;;;;;;2.70;99.90;;;;;;5035487;28;19925;-75
2022/01/26 01:11:15;;;;;;;;;;;2.70;99.90;;;;;;5036198;28;20619;-75
2022/01/26 01:13:43;;;;;;;;;;;2.70;99.90;;;;;;5038771;28;20011;-74
2022/01/26 01:16:12;;;;;;;;;;;2.70;99.90;;;;;;5043412;28;19933;-75
2022/01/26 01:18:44;;;;;;;;;;;2.80;99.90;;;;;;5044411;28;20391;-75
2022/01/26 01:24:21;;;;;;;;;;;2.80;99.90;;;;;;5034366;28;19931;-75
2022/01/26 01:29:42;;;;;;;;;;;2.80;99.90;;;;;;5034541;28;19948;-75
2022/01/26 01:32:14;;;;;;;;;;;2.80;99.90;;;;;;5044552;28;19933;-76
2022/01/26 01:34:40;;;;;;;;;;;2.80;99.90;;;;;;5035882;28;19964;-76
2022/01/26 01:37:09;;;;;;;;;;;2.80;99.90;;;;;;5051576;28;19931;-76
2022/01/26 01:39:36;;;;;;;;;;;2.80;99.90;;;;;;5039317;28;19967;-76
2022/01/26 01:42:03;;;;;;;;;;;2.80;99.90;;;;;;5039910;28;20098;-73
2022/01/26 01:44:30;;;;;;;;;;;2.80;99.90;;;;;;5051817;28;19925;-74
2022/01/26 01:46:58;;;;;;;;;;;2.80;99.90;;;;;;5049779;28;19928;-74
2022/01/26 01:49:25;;;;;;;;;;;2.80;99.90;;;;;;5048263;28;19925;-75
2022/01/26 01:51:56;;;;;;;;;;;2.80;99.90;;;;;;5044594;28;19925;-76
2022/01/26 01:54:22;;;;;;;;;;;2.80;99.90;;;;;;5050620;28;20007;-75
2022/01/26 01:56:54;;;;;;;;;;;2.80;99.90;;;;;;5051134;28;19931;-75
2022/01/26 01:59:21;;;;;;;;;;;2.90;99.90;;;;;;5041553;28;19932;-75
2022/01/26 02:01:47;;;;;;;;;;;2.90;99.90;;;;;;5047175;28;19931;-74
2022/01/26 02:04:15;;;;;;;;;;;2.90;99.90;;;;;;5044759;28;19932;-74
2022/01/26 02:06:43;;;;;;;;;;;2.80;99.90;;;;;;5045701;28;19924;-75
2022/01/26 02:09:10;;;;;;;;;;;2.80;99.90;;;;;;5042697;28;19968;-75
2022/01/26 02:11:43;;;;;;;;;;;2.80;99.90;;;;;;5047937;28;19925;-75
2022/01/26 02:14:17;;;;;;;;;;;2.80;99.90;;;;;;5043106;28;19931;-76
2022/01/26 02:16:49;;;;;;;;;;;2.80;99.90;;;;;;5037062;28;19925;-76
2022/01/26 02:52:29;;;;;;;;;;;2.60;99.90;;;;;;5035049;28;19955;-75
2022/01/26 02:55:14;;;;;;;;;;;2.60;99.90;;;;;;5034191;28;19929;-74
2022/01/26 02:58:04;;;;;;;;;;;2.60;99.90;;;;;;5038047;28;19956;-74
2022/01/26 03:00:40;;;;;;;;;;;2.60;99.90;;;;;;5044826;28;19925;-75
2022/01/26 03:03:14;;;;;;;;;;;2.60;99.90;;;;;;5041158;28;19929;-74
2022/01/26 03:05:49;;;;;;;;;;;2.60;99.90;;;;;;5047829;28;19976;-76
2022/01/26 03:08:15;;;;;;;;;;;2.60;99.90;;;;;;5044852;28;19944;-75
2022/01/26 03:10:49;;;;;;;;;;;2.60;99.90;;;;;;5049800;28;20023;-75
2022/01/26 03:13:19;;;;;;;;;;;2.60;99.90;;;;;;5042310;28;19983;-75
2022/01/26 03:15:51;;;;;;;;;;;2.60;99.90;;;;;;5056250;28;19935;-75
2022/01/26 03:18:38;;;;;;;;;;;2.60;99.90;;;;;;5045415;28;19928;-76
2022/01/26 03:21:08;;;;;;;;;;;2.60;99.90;;;;;;5048460;28;19936;-76
2022/01/26 03:29:13;;;;;;;;;;;2.60;99.90;;;;;;5028864;28;19933;-76
2022/01/26 03:32:25;;;;;;;;;;;2.60;99.90;;;;;;5035892;28;19931;-76
2022/01/26 03:34:51;;;;;;;;;;;2.60;99.90;;;;;;5051667;28;19925;-76
2022/01/26 03:37:20;;;;;;;;;;;2.50;99.90;;;;;;5039098;28;20087;-77
2022/01/26 03:39:47;;;;;;;;;;;2.40;99.90;;;;;;5051379;28;19932;-76
2022/01/26 03:42:15;;;;;;;;;;;2.40;99.90;;;;;;5049149;28;20004;-76
2022/01/26 03:44:42;;;;;;;;;;;2.50;99.90;;;;;;5053253;28;19963;-76
2022/01/26 03:47:09;;;;;;;;;;;2.40;99.90;;;;;;5045702;28;19931;-76
2022/01/26 03:49:37;;;;;;;;;;;2.40;99.90;;;;;;5054873;28;20024;-75
2022/01/26 03:52:04;;;;;;;;;;;2.30;99.90;;;;;;5051281;28;20288;-75
2022/01/26 03:54:31;;;;;;;;;;;2.40;99.90;;;;;;5041703;28;19967;-75
2022/01/26 03:56:58;;;;;;;;;;;2.40;99.90;;;;;;5040752;28;20000;-75
2022/01/26 03:59:26;;;;;;;;;;;2.30;99.90;;;;;;5047173;28;20296;-75
2022/01/26 04:01:52;;;;;;;;;;;2.20;99.90;;;;;;5047896;28;20395;-75
2022/01/26 04:04:19;;;;;;;;;;;2.20;99.90;;;;;;5041019;28;20388;-75
2022/01/26 04:06:46;;;;;;;;;;;2.30;99.90;;;;;;5053635;28;20011;-75
2022/01/26 04:09:15;;;;;;;;;;;2.30;99.90;;;;;;5042608;28;19925;-75
2022/01/26 04:11:44;;;;;;;;;;;2.20;99.90;;;;;;5046620;28;19933;-74
2022/01/26 04:14:15;;;;;;;;;;;2.20;99.90;;;;;;5048989;28;20363;-75
2022/01/26 04:16:44;;;;;;;;;;;2.10;99.90;;;;;;5054306;28;19947;-75
2022/01/26 04:19:11;;;;;;;;;;;2.10;99.90;;;;;;5051517;28;19924;-76
2022/01/26 04:21:50;;;;;;;;;;;2.10;99.90;;;;;;5048507;28;20388;-75
2022/01/26 04:24:21;;;;;;;;;;;2.10;99.90;;;;;;5047876;28;20380;-75
2022/01/26 04:26:53;;;;;;;;;;;2.10;99.90;;;;;;5052233;28;19924;-75
2022/01/26 04:29:24;;;;;;;;;;;2.10;99.90;;;;;;5049336;28;19925;-74
2022/01/26 04:31:52;;;;;;;;;;;2.10;99.90;;;;;;5043252;28;20027;-75
2022/01/26 04:34:19;;;;;;;;;;;2.10;99.90;;;;;;5043351;28;19931;-75
2022/01/26 04:36:54;;;;;;;;;;;2.10;99.90;;;;;;5046385;28;19946;-75
2022/01/26 04:39:25;;;;;;;;;;;2.10;99.90;;;;;;5040514;28;19967;-75
2022/01/26 04:41:55;;;;;;;;;;;2.10;99.90;;;;;;5042523;28;19955;-74
2022/01/26 04:44:23;;;;;;;;;;;2.10;99.90;;;;;;5045333;28;19925;-75
2022/01/26 04:46:49;;;;;;;;;;;2.00;99.90;;;;;;5050498;28;19924;-73
2022/01/26 04:49:17;;;;;;;;;;;2.00;99.90;;;;;;5046039;28;19932;-74
2022/01/26 04:51:44;;;;;;;;;;;2.00;99.90;;;;;;5048450;28;19932;-75
2022/01/26 04:54:11;;;;;;;;;;;2.10;99.90;;;;;;5037968;28;19925;-75
2022/01/26 04:56:38;;;;;;;;;;;2.00;99.90;;;;;;5049819;28;19924;-75
2022/01/26 04:59:04;;;;;;;;;;;2.00;99.90;;;;;;5047892;28;19928;-75
2022/01/26 05:01:31;;;;;;;;;;;2.00;99.90;;;;;;5046839;28;19925;-76
2022/01/26 05:03:58;;;;;;;;;;;2.10;99.90;;;;;;5044597;28;19929;-75
2022/01/26 05:06:26;;;;;;;;;;;2.10;99.90;;;;;;5035576;28;19932;-75
2022/01/26 05:08:52;;;;;;;;;;;2.10;99.90;;;;;;5042632;28;20367;-75
2022/01/26 05:11:28;;;;;;;;;;;2.10;99.90;;;;;;5046195;28;19932;-76
2022/01/26 05:13:55;;;;;;;;;;;2.10;99.90;;;;;;5043373;28;19931;-76
2022/01/26 05:16:22;;;;;;;;;;;2.10;99.90;;;;;;5035180;28;19925;-74
2022/01/26 05:18:49;;;;;;;;;;;2.10;99.90;;;;;;5063282;28;19932;-80
2022/01/26 05:21:15;;;;;;;;;;;2.10;99.90;;;;;;5067860;28;19924;-77
2022/01/26 05:23:43;;;;;;;;;;;2.10;99.90;;;;;;5055627;28;20376;-80
2022/01/26 05:26:10;;;;;;;;;;;2.10;99.90;;;;;;5065117;28;20078;-80
2022/01/26 05:28:37;;;;;;;;;;;2.00;99.90;;;;;;5059736;28;19929;-79
2022/01/26 05:31:03;;;;;;;;;;;2.10;99.90;;;;;;5066736;28;20000;-79
2022/01/26 05:33:30;;;;;;;;;;;2.00;99.90;;;;;;5059373;28;19985;-80
2022/01/26 05:35:57;;;;;;;;;;;2.10;99.90;;;;;;5078963;28;19928;-79
2022/01/26 05:38:23;;;;;;;;;;;2.10;99.90;;;;;;5062950;28;19925;-79
2022/01/26 05:40:51;;;;;;;;;;;2.10;99.90;;;;;;5058628;28;19930;-78
2022/01/26 05:43:18;;;;;;;;;;;2.10;99.90;;;;;;5044158;28;19931;-78
2022/01/26 05:45:48;;;;;;;;;;;2.10;99.90;;;;;;5039262;28;20035;-79
2022/01/26 05:48:15;;;;;;;;;;;2.00;99.90;;;;;;5048598;28;19932;-78
2022/01/26 05:50:50;;;;;;;;;;;2.00;99.90;;;;;;5054439;28;19964;-78
2022/01/26 05:53:20;;;;;;;;;;;2.10;99.90;;;;;;5051388;28;19925;-77
2022/01/26 05:55:47;;;;;;;;;;;2.10;99.90;;;;;;5044682;28;20311;-79
2022/01/26 05:58:15;;;;;;;;;;;2.20;99.90;;;;;;5050051;28;19932;-76
2022/01/26 06:00:42;;;;;;;;;;;2.20;99.90;;;;;;5052729;28;19931;-78
2022/01/26 06:03:08;;;;;;;;;;;2.30;99.90;;;;;;5042646;28;19925;-77
2022/01/26 06:05:35;;;;;;;;;;;2.30;99.90;;;;;;5041006;28;20011;-76
2022/01/26 06:08:02;;;;;;;;;;;2.20;99.90;;;;;;5047159;28;19931;-77
2022/01/26 06:10:28;;;;;;;;;;;2.20;99.90;;;;;;5052005;28;19933;-74
2022/01/26 06:12:55;;;;;;;;;;;2.20;99.90;;;;;;5067102;28;19908;-82
2022/01/26 06:15:23;;;;;;;;;;;2.20;99.90;;;;;;5076525;28;19972;-82
2022/01/26 06:17:50;;;;;;;;;;;2.20;99.90;;;;;;5066933;28;19947;-73
2022/01/26 06:20:16;;;;;;;;;;;2.20;99.90;;;;;;5076603;28;19920;-82
2022/01/26 06:22:43;;;;;;;;;;;2.20;99.90;;;;;;5064653;28;19988;-77
2022/01/26 06:25:10;;;;;;;;;;;2.20;99.90;;;;;;5078270;28;19909;-80
2022/01/26 06:27:37;;;;;;;;;;;2.20;99.90;;;;;;5078737;28;19917;-71
2022/01/26 06:30:04;;;;;;;;;;;2.20;99.90;;;;;;5079094;28;19960;-70
2022/01/26 06:32:33;;;;;;;;;;;2.20;99.90;;;;;;5078146;28;19935;-79
2022/01/26 06:35:00;;;;;;;;;;;2.20;99.90;;;;;;5072426;28;19944;-76
2022/01/26 06:37:29;;;;;;;;;;;2.20;99.90;;;;;;5078767;28;19935;-79
2022/01/26 06:39:56;;;;;;;;;;;2.20;99.90;;;;;;5073448;28;19932;-73
2022/01/26 06:42:27;;;;;;;;;;;2.20;99.90;;;;;;5075176;28;19955;-79
2022/01/26 06:45:07;;;;;;;;;;;2.20;99.90;;;;;;5061944;28;19909;-78
2022/01/26 06:47:50;;;;;;;;;;;2.20;99.90;;;;;;5075101;28;19948;-70
2022/01/26 06:50:18;;;;;;;;;;;2.30;99.90;;;;;;5064339;28;19944;-79
2022/01/26 06:52:47;;;;;;;;;;;2.30;99.90;;;;;;5084185;28;19909;-77
2022/01/26 06:55:14;;;;;;;;;;;2.30;99.90;;;;;;5086637;28;19972;-80
2022/01/26 06:57:40;;;;;;;;;;;2.30;99.90;;;;;;5072345;28;19959;-81
2022/01/26 07:00:08;;;;;;;;;;;2.30;99.90;;;;;;5084856;28;19938;-80
2022/01/26 07:02:36;;;;;;;;;;;2.30;99.90;;;;;;5070635;28;19955;-79
2022/01/26 07:05:06;;;;;;;;;;;2.30;99.90;;;;;;5092856;28;19931;-81
2022/01/26 07:07:34;;;;;;;;;;;2.30;99.90;;;;;;5094836;28;19932;-81
2022/01/26 07:10:01;;;;;;;;;;;2.30;99.90;;;;;;5064626;28;19964;-77
2022/01/26 07:12:28;;;;;;;;;;;2.40;99.90;;;;;;5061903;28;19924;-78
2022/01/26 07:20:56;;;;;;;;;;;2.40;99.90;;;;;;5061292;28;19932;-78
2022/01/26 07:23:08;;;;;;;;;;;2.40;99.90;;;;;;5040619;28;19925;-70
2022/01/26 07:25:35;;;;;;;;;;;2.40;99.90;;;;;;5053549;28;20013;-80
2022/01/26 07:28:04;;;;;;;;;;;2.50;99.90;;;;;;5068396;28;19941;-74
2022/01/26 07:30:30;;;;;;;;;;;2.50;99.90;;;;;;5061189;28;19964;-78
2022/01/26 07:38:02;;;;;;;;;;;2.50;99.90;;;;;;5048234;22;19916;-67
2022/01/26 07:40:29;;;;;;;;;;;2.40;99.90;;;;;;5041559;28;19913;-68
2022/01/26 07:42:55;;;;;;;;;;;2.50;99.90;;;;;;5022760;28;20355;-78
2022/01/26 07:45:23;;;;;;;;;;;2.50;99.90;;;;;;5020340;28;20340;-79
2022/01/26 07:47:53;;;;;;;;;;;2.50;99.90;;;;;;5039248;28;19913;-72
2022/01/26 07:50:22;;;;;;;;;;;2.50;99.90;;;;;;5022001;28;19910;-74
2022/01/26 07:52:49;;;;;;;;;;;2.60;99.90;;;;;;5021989;28;19917;-65
2022/01/26 07:55:19;;;;;;;;;;;2.50;99.90;;;;;;5021925;28;19938;-68
2022/01/26 07:57:48;;;;;;;;;;;2.40;99.90;;;;;;5022008;28;19973;-70
2022/01/26 08:00:15;;;;;;;;;;;2.40;99.90;;;;;;5020687;28;19926;-68
2022/01/26 08:08:21;;;;;;;;;;;2.50;99.90;;;;;;5337650;22;19909;-67
2022/01/26 08:10:50;;;;;;;;;;;2.50;99.90;;;;;;5061124;28;19968;-73
2022/01/26 08:13:16;;;;;;;;;;;2.50;99.90;;;;;;5059202;28;19929;-73
2022/01/26 08:15:44;;;;;;;;;;;2.50;99.90;;;;;;5061458;28;19909;-64
2022/01/26 08:18:10;;;;;;;;;;;2.60;99.90;;;;;;5060630;28;19953;-70
2022/01/26 08:20:37;;;;;;;;;;;2.50;99.90;;;;;;5059254;28;19944;-78
2022/01/26 08:23:04;;;;;;;;;;;2.60;99.90;;;;;;5079060;22;19916;-75
2022/01/26 08:25:30;;;;;;;;;;;3.10;99.90;;;;;;5076589;28;19913;-65
2022/01/26 08:28:05;;;;;;;;;;;2.60;99.90;;;;;;5079171;28;19909;-63
2022/01/26 08:30:36;;;;;;;;;;;2.70;99.90;;;;;;5072066;28;19939;-77
2022/01/26 08:33:06;;;;;;;;;;;2.70;99.90;;;;;;5061400;28;19913;-69
2022/01/26 08:35:32;;;;;;;;;;;2.60;99.90;;;;;;5075422;28;19909;-67
2022/01/26 08:40:37;;;;;;;;;;;2.70;99.90;;;;;;5693415;22;19909;-68
2022/01/26 08:43:05;;;;;;;;;;;2.70;99.90;;;;;;5033276;28;19932;-75
2022/01/26 08:45:32;;;;;;;;;;;2.70;99.90;;;;;;5018058;28;19932;-74
2022/01/26 08:47:59;;;;;;;;;;;2.70;99.90;;;;;;5056678;28;19909;-70
2022/01/26 08:50:27;;;;;;;;;;;2.70;99.90;;;;;;5060582;28;19920;-68
2022/01/26 08:52:54;;;;;;;;;;;2.70;99.90;;;;;;5059854;28;20054;-75
2022/01/26 08:55:20;;;;;;;;;;;2.70;99.90;;;;;;5040556;28;19945;-74
2022/01/26 08:57:47;;;;;;;;;;;2.80;99.90;;;;;;5047316;28;19976;-74
2022/01/26 09:00:16;;;;;;;;;;;2.80;99.90;;;;;;5060041;28;19977;-68
2022/01/26 09:02:43;;;;;;;;;;;2.80;99.90;;;;;;5059696;28;19931;-83
2022/01/26 09:05:10;;;;;;;;;;;2.80;99.90;;;;;;5057850;28;19909;-81
2022/01/26 09:07:39;;;;;;;;;;;2.80;99.90;;;;;;5050075;28;19909;-80
2022/01/26 09:10:06;;;;;;;;;;;2.90;99.90;;;;;;5071700;28;19909;-77
2022/01/26 09:12:36;;;;;;;;;;;2.90;99.90;;;;;;5039358;28;19945;-72
2022/01/26 09:15:12;;;;;;;;;;;2.90;99.90;;;;;;5040036;28;19917;-72
2022/01/26 09:17:42;;;;;;;;;;;2.90;99.90;;;;;;5044115;28;19909;-80
2022/01/26 09:20:11;;;;;;;;;;;3.00;99.90;;;;;;5055314;28;19916;-74
2022/01/26 09:22:38;;;;;;;;;;;3.00;99.90;;;;;;5040080;28;19917;-67
2022/01/26 09:25:05;;;;;;;;;;;3.00;99.90;;;;;;5039781;28;19941;-75
2022/01/26 09:27:32;;;;;;;;;;;3.10;99.90;;;;;;5039785;28;19934;-66
2022/01/26 09:29:58;;;;;;;;;;;3.10;99.90;;;;;;5041125;28;19996;-68
2022/01/26 09:32:25;;;;;;;;;;;3.10;99.90;;;;;;5059161;28;19916;-70
2022/01/26 09:34:53;;;;;;;;;;;3.20;99.90;;;;;;5059541;28;19925;-63
2022/01/26 09:39:56;;;;;;;;;;;3.20;99.90;;;;;;5148392;22;19913;-72
2022/01/26 09:42:24;;;;;;;;;;;3.20;99.90;;;;;;5041524;28;19909;-73
2022/01/26 09:44:50;;;;;;;;;;;3.10;99.90;;;;;;5057068;28;19915;-72
2022/01/26 09:47:17;;;;;;;;;;;3.20;99.90;;;;;;5098265;22;19925;-72
2022/01/26 09:49:45;;;;;;;;;;;3.20;99.90;;;;;;5062930;28;19981;-69
2022/01/26 09:52:20;;;;;;;;;;;3.30;99.90;;;;;;5058674;28;19913;-81
2022/01/26 09:54:47;;;;;;;;;;;3.30;99.90;;;;;;5486389;22;20005;-71
2022/01/26 09:57:13;;;;;;;;;;;3.40;99.90;;;;;;5053111;28;20044;-72
2022/01/26 09:59:40;;;;;;;;;;;3.40;99.90;;;;;;5048205;28;19984;-78
2022/01/26 10:02:07;;;;;;;;;;;3.40;99.90;;;;;;5053606;28;19968;-79
2022/01/26 10:04:36;;;;;;;;;;;3.50;99.90;;;;;;5052948;28;19980;-81
2022/01/26 10:07:09;;;;;;;;;;;3.40;99.90;;;;;;5049343;28;19921;-72
2022/01/26 10:09:58;;;;;;;;;;;3.50;99.90;;;;;;6048223;22;19961;-77
2022/01/26 10:15:32;;;;;;;;;;;3.50;99.90;;;;;;5050764;28;19928;-76
2022/01/26 10:18:10;;;;;;;;;;;3.50;99.90;;;;;;5053628;28;19940;-73
2022/01/26 10:20:41;;;;;;;;;;;3.50;99.90;;;;;;5044633;28;19913;-78
2022/01/26 10:23:16;;;;;;;;;;;3.60;99.90;;;;;;5185563;22;19909;-74
2022/01/26 10:25:46;;;;;;;;;;;3.60;99.90;;;;;;5039676;28;19992;-76
2022/01/26 10:28:14;;;;;;;;;;;3.70;99.90;;;;;;5052407;28;19926;-79
2022/01/26 10:30:45;;;;;;;;;;;3.70;99.90;;;;;;5294827;22;19925;-79
2022/01/26 10:33:12;;;;;;;;;;;3.70;99.90;;;;;;5054393;28;19977;-75
2022/01/26 10:35:39;;;;;;;;;;;3.60;99.90;;;;;;5052254;28;19910;-78
2022/01/26 10:38:06;;;;;;;;;;;3.60;99.90;;;;;;5045896;28;19936;-69
2022/01/26 10:40:34;;;;;;;;;;;3.70;99.90;;;;;;5058322;28;19924;-74
2022/01/26 10:43:05;;;;;;;;;;;3.70;99.90;;;;;;5062388;28;19909;-73
2022/01/26 10:45:39;;;;;;;;;;;3.60;99.90;;;;;;5062916;28;19952;-68
2022/01/26 10:48:16;;;;;;;;;;;3.60;99.90;;;;;;5062192;28;19916;-65
2022/01/26 10:51:09;;;;;;;;;;;3.60;99.90;;;;;;5061700;28;19921;-75
2022/01/26 10:53:40;;;;;;;;;;;3.60;99.90;;;;;;5057027;28;19956;-76
2022/01/26 10:56:06;;;;;;;;;;;3.60;99.90;;;;;;5061930;28;19910;-77
2022/01/26 10:58:35;;;;;;;;;;;3.60;99.90;;;;;;5051758;28;19925;-78
2022/01/26 11:01:01;;;;;;;;;;;3.50;99.90;;;;;;5047143;28;19969;-78
2022/01/26 11:03:28;;;;;;;;;;;3.60;99.90;;;;;;5040327;28;19925;-77
2022/01/26 11:05:55;;;;;;;;;;;3.60;99.90;;;;;;5047814;28;19920;-71
2022/01/26 11:08:24;;;;;;;;;;;3.60;99.90;;;;;;5043259;28;19913;-64
2022/01/26 11:10:50;;;;;;;;;;;3.60;99.90;;;;;;5045236;28;19933;-80
2022/01/26 11:13:24;;;;;;;;;;;3.60;99.90;;;;;;5044780;28;19917;-79
2022/01/26 11:15:55;;;;;;;;;;;3.70;99.90;;;;;;5041997;28;19998;-78
2022/01/26 11:18:28;;;;;;;;;;;3.70;99.90;;;;;;5038853;28;19941;-70
2022/01/26 11:20:55;;;;;;;;;;;3.70;99.90;;;;;;5042793;28;19940;-79
2022/01/26 11:23:33;;;;;;;;;;;3.70;99.90;;;;;;5069045;28;19919;-68
2022/01/26 11:26:22;;;;;;;;;;;3.80;99.90;;;;;;5061166;28;19981;-66
2022/01/26 11:28:48;;;;;;;;;;;3.80;99.90;;;;;;5047462;28;19973;-77
2022/01/26 11:31:17;;;;;;;;;;;3.70;99.90;;;;;;5061144;28;19909;-70
2022/01/26 11:33:47;;;;;;;;;;;3.70;99.90;;;;;;5053246;28;19925;-81
2022/01/26 11:36:18;;;;;;;;;;;3.70;99.90;;;;;;5051036;28;19964;-75
2022/01/26 11:47:29;;;;;;;;;;;3.70;99.90;;;;;;5047138;28;19939;-81
2022/01/26 11:50:02;;;;;;;;;;;3.80;99.90;;;;;;5037154;28;19925;-77
2022/01/26 11:52:35;;;;;;;;;;;3.80;99.90;;;;;;5050962;28;19921;-81
2022/01/26 11:55:02;;;;;;;;;;;3.70;99.90;;;;;;5048291;28;19926;-80
2022/01/26 11:57:37;;;;;;;;;;;3.70;99.90;;;;;;5039728;28;19924;-79
2022/01/26 12:00:08;;;;;;;;;;;3.70;99.90;;;;;;5032359;28;19929;-81
2022/01/26 12:02:49;;;;;;;;;;;3.70;99.90;;;;;;5047848;28;20028;-78
2022/01/26 12:05:19;;;;;;;;;;;3.80;99.90;;;;;;5040547;28;19931;-82
2022/01/26 12:07:50;;;;;;;;;;;3.70;99.90;;;;;;5052363;28;19933;-79
2022/01/26 12:10:23;;;;;;;;;;;3.90;99.90;;;;;;5047441;28;19979;-79
2022/01/26 12:12:58;;;;;;;;;;;3.90;99.90;;;;;;5046015;28;19932;-78
2022/01/26 12:15:27;;;;;;;;;;;3.80;99.90;;;;;;5038026;28;19955;-78
2022/01/26 12:18:13;;;;;;;;;;;3.80;99.90;;;;;;5038539;28;19948;-75
2022/01/26 12:34:58;;;;;;;;;;;4.00;99.90;;;;;;5026216;28;19929;-80
2022/01/26 12:37:38;;;;;;;;;;;3.90;99.90;;;;;;5049858;28;19935;-79
2022/01/26 12:45:34;;;;;;;;;;;3.70;99.90;;;;;;5043105;28;19925;-79
2022/01/26 12:48:00;;;;;;;;;;;3.70;99.90;;;;;;5038437;28;19925;-78
2022/01/26 12:50:29;;;;;;;;;;;3.70;99.90;;;;;;5040688;28;19926;-79
2022/01/26 12:52:57;;;;;;;;;;;3.60;99.90;;;;;;5065763;22;20039;-78
2022/01/26 12:55:24;;;;;;;;;;;3.60;99.90;;;;;;5026253;28;19925;-82
2022/01/26 12:57:51;;;;;;;;;;;3.60;99.90;;;;;;5025135;28;19960;-80
2022/01/26 13:00:18;;;;;;;;;;;3.50;99.90;;;;;;5031164;28;19929;-79
2022/01/26 13:02:45;;;;;;;;;;;3.60;99.90;;;;;;5033641;28;19932;-79
2022/01/26 13:05:14;;;;;;;;;;;3.60;99.90;;;;;;5027331;28;19941;-74
2022/01/26 13:07:42;;;;;;;;;;;3.60;99.90;;;;;;5026350;28;19909;-81
2022/01/26 13:10:16;;;;;;;;;;;3.60;99.90;;;;;;5031661;28;20032;-77
2022/01/26 13:12:43;;;;;;;;;;;3.70;99.90;;;;;;5025869;28;20073;-79
2022/01/26 13:15:19;;;;;;;;;;;3.70;99.90;;;;;;5021153;28;19926;-81
2022/01/26 13:17:51;;;;;;;;;;;3.80;99.90;;;;;;5036623;28;19952;-78
2022/01/26 13:20:38;;;;;;;;;;;3.70;99.90;;;;;;5024578;28;19930;-77
2022/01/26 13:23:24;;;;;;;;;;;3.70;99.90;;;;;;5031746;28;19936;-75
2022/01/26 13:26:02;;;;;;;;;;;3.70;99.90;;;;;;5032791;28;19916;-80
2022/01/26 13:28:40;;;;;;;;;;;3.70;99.90;;;;;;5035133;28;19932;-79
2022/01/26 13:31:29;;;;;;;;;;;3.80;99.90;;;;;;5031335;28;19921;-79
2022/01/26 13:36:58;;;;;;;;;;;3.60;99.90;;;;;;5009604;28;19932;-77
2022/01/26 13:39:39;;;;;;;;;;;3.50;99.90;;;;;;5020979;28;20098;-78
2022/01/26 13:42:33;;;;;;;;;;;3.50;99.90;;;;;;5024342;28;19929;-79
2022/01/26 13:45:37;;;;;;;;;;;3.60;99.90;;;;;;5024004;28;19929;-80
2022/01/26 13:50:56;;;;;;;;;;;3.70;99.90;;;;;;5017630;28;19925;-79
2022/01/26 13:53:32;;;;;;;;;;;3.60;99.90;;;;;;5021059;28;19926;-81
2022/01/26 13:56:08;;;;;;;;;;;3.60;99.90;;;;;;5022917;28;19980;-79
2022/01/26 13:58:58;;;;;;;;;;;3.60;99.90;;;;;;5022378;28;20012;-78
2022/01/26 14:01:24;;;;;;;;;;;3.60;99.90;;;;;;5021909;28;19925;-78
2022/01/26 14:03:55;;;;;;;;;;;3.60;99.90;;;;;;5021111;28;19925;-79
2022/01/26 14:06:21;;;;;;;;;;;3.60;99.90;;;;;;5023121;28;19976;-79
2022/01/26 14:08:48;;;;;;;;;;;3.60;99.90;;;;;;5024254;28;19909;-78
2022/01/26 14:11:18;;;;;;;;;;;3.60;99.90;;;;;;5030911;28;20412;-78
2022/01/26 14:13:46;;;;;;;;;;;3.60;99.90;;;;;;5024704;28;19932;-79
2022/01/26 14:16:16;;;;;;;;;;;3.60;99.90;;;;;;5027894;28;19933;-78
2022/01/26 14:19:03;;;;;;;;;;;3.60;99.90;;;;;;5026874;28;19968;-79
2022/01/26 14:21:43;;;;;;;;;;;3.70;99.90;;;;;;5029309;28;19985;-78
2022/01/26 14:26:50;;;;;;;;;;;3.70;99.90;;;;;;5031567;28;19929;-79
2022/01/26 14:29:25;;;;;;;;;;;3.60;99.90;;;;;;5030791;28;19996;-78
2022/01/26 14:32:04;;;;;;;;;;;3.70;99.90;;;;;;5020714;28;20312;-78
2022/01/26 14:51:44;;;;;;;;;;;3.60;99.90;;;;;;5020972;28;19964;-80
2022/01/26 15:30:05;;;;;;;;;;;3.60;99.90;;;;;;5017000;28;19948;-79
2022/01/26 15:35:28;;;;;;;;;;;3.60;99.90;;;;;;5017935;28;19926;-80
2022/01/26 15:40:54;;;;;;;;;;;3.50;99.90;;;;;;5021987;28;19932;-81
2022/01/26 15:43:38;;;;;;;;;;;3.50;99.90;;;;;;5020696;28;19969;-80
2022/01/26 15:52:11;;;;;;;;;;;3.50;99.90;;;;;;5111287;27;19916;-75
2022/01/26 15:57:52;;;;;;;;;;;3.40;99.90;;;;;;5109418;28;19938;-75
2022/01/26 17:43:16;;;;;;;;;;;3.40;99.90;;;;;;5125192;27;19930;-76
2022/01/26 18:16:33;;;;;;;;;;;3.40;99.90;;;;;;5098445;27;19923;-74
2022/01/26 18:32:54;;;;;;;;;;;3.40;99.90;;;;;;5121931;27;20461;-75
2022/01/26 18:49:14;;;;;;;;;;;3.50;99.90;;;;;;5108561;27;19932;-77
2022/01/26 18:51:42;;;;;;;;;;;3.50;99.90;;;;;;5118448;27;19923;-76
2022/01/26 18:54:11;;;;;;;;;;;3.50;99.90;;;;;;5120792;27;20006;-76
2022/01/26 18:56:41;;;;;;;;;;;3.50;99.90;;;;;;5118472;27;19938;-73
2022/01/26 18:59:13;;;;;;;;;;;3.60;99.90;;;;;;5118907;27;19955;-74
2022/01/26 19:01:40;;;;;;;;;;;3.60;99.90;;;;;;5116535;27;20039;-74
2022/01/26 19:04:06;;;;;;;;;;;3.60;99.90;;;;;;5122150;27;19927;-75
2022/01/26 19:06:33;;;;;;;;;;;3.60;99.90;;;;;;5114258;27;19938;-74
2022/01/26 19:09:00;;;;;;;;;;;3.60;99.90;;;;;;5119017;27;20378;-74
2022/01/26 19:11:28;;;;;;;;;;;3.60;99.90;;;;;;5117589;27;20375;-75
2022/01/26 19:13:55;;;;;;;;;;;3.60;99.90;;;;;;5124118;27;20333;-76
2022/01/26 19:16:31;;;;;;;;;;;3.60;99.90;;;;;;5121630;27;19962;-75
2022/01/26 19:19:00;;;;;;;;;;;3.60;99.90;;;;;;5118258;27;19982;-75
2022/01/26 19:21:42;;;;;;;;;;;3.70;99.90;;;;;;5125696;27;19999;-75
2022/01/26 19:24:22;;;;;;;;;;;3.60;99.90;;;;;;5118939;27;19923;-76
2022/01/26 19:26:54;;;;;;;;;;;3.70;99.90;;;;;;5119572;27;19924;-75
2022/01/26 19:29:32;;;;;;;;;;;3.70;99.90;;;;;;5110878;27;19932;-75
2022/01/26 19:45:59;;;;;;;;;;;3.70;99.90;;;;;;5110933;27;20387;-76
2022/01/26 19:51:09;;;;;;;;;;;3.70;99.90;;;;;;5107386;27;19985;-75
2022/01/26 19:53:36;;;;;;;;;;;3.70;99.90;;;;;;5106246;28;19984;-76
2022/01/26 19:56:03;;;;;;;;;;;3.70;99.90;;;;;;5105746;28;19959;-76
2022/01/26 19:58:31;;;;;;;;;;;3.70;99.90;;;;;;5103728;27;20383;-75
2022/01/26 20:00:58;;;;;;;;;;;3.70;99.90;;;;;;5105559;27;19935;-76
2022/01/26 20:03:26;;;;;;;;;;;3.80;99.90;;;;;;5103095;28;20278;-75
2022/01/26 20:05:54;;;;;;;;;;;3.90;99.90;;;;;;5106188;28;20353;-75
2022/01/26 20:08:31;;;;;;;;;;;3.80;99.90;;;;;;5103172;28;19934;-76
2022/01/26 20:11:02;;;;;;;;;;;3.70;99.90;;;;;;5103248;28;20393;-75
2022/01/26 20:13:31;;;;;;;;;;;3.80;99.90;;;;;;5103190;28;20309;-75
2022/01/26 20:16:00;;;;;;;;;;;3.80;99.90;;;;;;5102718;28;19928;-75
2022/01/26 20:18:27;;;;;;;;;;;3.80;99.90;;;;;;5106473;28;20033;-75
2022/01/26 20:20:58;;;;;;;;;;;3.80;99.90;;;;;;5106214;28;19931;-75
2022/01/26 20:23:27;;;;;;;;;;;3.80;99.90;;;;;;5105048;28;19927;-75
2022/01/26 20:25:59;;;;;;;;;;;3.80;99.90;;;;;;5105198;27;20050;-74
2022/01/26 20:28:26;;;;;;;;;;;3.80;99.90;;;;;;5105982;28;19955;-75
2022/01/26 20:30:53;;;;;;;;;;;3.80;99.90;;;;;;5105510;27;19923;-75
2022/01/26 20:33:22;;;;;;;;;;;3.80;99.90;;;;;;5101593;28;20364;-74
2022/01/26 20:35:48;;;;;;;;;;;3.80;99.90;;;;;;5104592;27;19928;-75
2022/01/26 20:38:15;;;;;;;;;;;3.80;99.90;;;;;;5105857;27;20023;-75
2022/01/26 20:40:42;;;;;;;;;;;3.80;99.90;;;;;;5120829;27;19924;-76
2022/01/26 20:43:09;;;;;;;;;;;3.70;99.90;;;;;;5112984;27;20006;-75
2022/01/26 20:45:36;;;;;;;;;;;3.80;99.90;;;;;;5111333;27;20397;-75
2022/01/26 20:48:04;;;;;;;;;;;3.70;99.90;;;;;;5109564;27;19938;-75
2022/01/26 20:50:32;;;;;;;;;;;3.70;99.90;;;;;;5107581;27;19928;-75
2022/01/26 20:52:59;;;;;;;;;;;3.70;99.90;;;;;;5110041;27;19927;-75
2022/01/26 20:55:26;;;;;;;;;;;3.70;99.90;;;;;;5108007;27;19982;-75